Time;durP1;ratioP1;P1;durP2;ratioP2;P2;SDS_P1;SDS_P2;PMS_P1;PMS_P2;Temp;Humidity;BMP_temperature;BMP_pressure;BME280_temperature;BME280_humidity;BME280_pressure;Samples;Min_cycle;Max_cycle;Signal;HPM_P1;HPM_P2
2023/06/23 00:01:37;;;;;;;1.90;1.10;;;26.40;49.30;;;;;;5019315;28;20078;-66
2023/06/23 00:04:03;;;;;;;1.60;1.27;;;26.40;49.30;;;;;;5039510;28;20030;-64
2023/06/23 00:06:29;;;;;;;2.17;1.20;;;26.40;49.30;;;;;;5033452;28;20033;-66
2023/06/23 00:08:55;;;;;;;1.73;1.40;;;26.40;49.30;;;;;;5040237;28;20075;-65
2023/06/23 00:11:21;;;;;;;2.10;1.40;;;26.40;49.30;;;;;;5041027;28;20035;-63
2023/06/23 00:13:47;;;;;;;2.05;1.50;;;26.40;49.30;;;;;;5042884;28;20053;-67
2023/06/23 00:16:13;;;;;;;2.05;1.60;;;26.40;49.30;;;;;;5034745;28;20306;-66
2023/06/23 00:18:39;;;;;;;1.52;1.00;;;26.40;49.30;;;;;;5037607;28;20042;-66
2023/06/23 00:21:10;;;;;;;2.35;1.48;;;26.40;49.30;;;;;;5034831;28;20037;-65
2023/06/23 00:23:37;;;;;;;1.73;1.27;;;26.40;49.30;;;;;;5021339;28;20029;-64
2023/06/23 00:26:04;;;;;;;2.38;1.30;;;26.40;49.30;;;;;;5022407;28;20392;-63
2023/06/23 00:28:30;;;;;;;1.73;1.33;;;26.40;49.30;;;;;;5040824;28;20097;-63
2023/06/23 00:30:57;;;;;;;1.42;1.15;;;26.40;49.30;;;;;;5026395;28;20029;-65
2023/06/23 00:33:23;;;;;;;1.52;1.20;;;26.30;49.30;;;;;;5021921;28;20025;-64
2023/06/23 00:35:49;;;;;;;1.75;1.27;;;26.30;49.30;;;;;;5044510;28;20055;-63
2023/06/23 00:38:15;;;;;;;1.35;1.20;;;26.30;49.30;;;;;;5039406;28;20373;-64
2023/06/23 00:40:42;;;;;;;2.50;1.15;;;26.30;49.30;;;;;;5028930;28;20458;-64
2023/06/23 00:43:08;;;;;;;2.08;1.20;;;26.30;49.30;;;;;;5026568;28;20106;-64
2023/06/23 00:45:34;;;;;;;2.22;1.50;;;26.30;49.30;;;;;;5043877;28;20423;-67
2023/06/23 00:48:05;;;;;;;1.65;1.30;;;26.30;49.30;;;;;;5036917;28;20029;-65
2023/06/23 00:50:31;;;;;;;2.17;1.40;;;26.30;49.30;;;;;;5041802;28;20013;-66
2023/06/23 00:52:57;;;;;;;1.75;1.40;;;26.30;49.30;;;;;;5040075;28;20025;-63
2023/06/23 00:55:28;;;;;;;1.63;1.27;;;26.30;49.90;;;;;;5041093;28;20060;-64
2023/06/23 00:57:56;;;;;;;1.35;1.23;;;26.30;49.30;;;;;;5021655;28;20120;-65
2023/06/23 01:00:23;;;;;;;2.10;1.40;;;26.20;49.20;;;;;;5020296;28;20041;-63
2023/06/23 01:02:54;;;;;;;2.85;1.20;;;26.30;49.30;;;;;;5042843;28;20091;-66
2023/06/23 01:05:26;;;;;;;2.95;1.30;;;26.20;49.20;;;;;;5025385;28;20536;-64
2023/06/23 01:08:13;;;;;;;1.60;1.30;;;26.20;49.20;;;;;;5019533;28;20029;-63
2023/06/23 01:10:46;;;;;;;1.17;1.02;;;26.20;49.80;;;;;;5010468;28;20021;-65
2023/06/23 01:14:03;;;;;;;1.45;1.23;;;26.20;49.20;;;;;;5042079;28;20045;-64
2023/06/23 01:16:37;;;;;;;1.92;1.10;;;26.20;49.20;;;;;;4981093;28;20351;-64
2023/06/23 01:19:19;;;;;;;1.20;1.10;;;26.20;49.20;;;;;;5042806;28;20490;-66
2023/06/23 01:22:03;;;;;;;1.77;1.30;;;26.20;49.20;;;;;;5026459;28;20029;-63
2023/06/23 01:25:01;;;;;;;1.65;1.40;;;26.20;49.20;;;;;;5041616;28;20048;-65
2023/06/23 01:27:52;;;;;;;1.70;1.20;;;26.20;49.20;;;;;;5042502;28;20040;-64
2023/06/23 01:30:25;;;;;;;1.77;1.30;;;26.20;49.20;;;;;;5024049;28;20047;-65
2023/06/23 01:32:54;;;;;;;1.77;1.40;;;26.20;49.20;;;;;;5027470;28;20044;-65
2023/06/23 01:35:24;;;;;;;1.50;1.15;;;26.10;49.10;;;;;;5036618;28;20398;-64
2023/06/23 01:37:57;;;;;;;1.30;1.15;;;26.10;49.10;;;;;;5018605;28;20045;-63
2023/06/23 01:40:26;;;;;;;1.60;1.27;;;26.10;49.10;;;;;;5038737;28;20069;-64
2023/06/23 01:42:58;;;;;;;1.73;1.40;;;26.10;49.10;;;;;;5041608;28;20021;-62
2023/06/23 01:45:27;;;;;;;1.23;1.08;;;26.10;49.10;;;;;;5007013;28;20453;-64
2023/06/23 01:47:54;;;;;;;1.52;1.30;;;26.10;49.10;;;;;;5044103;28;20076;-63
2023/06/23 01:50:22;;;;;;;1.52;1.40;;;26.10;49.10;;;;;;5015695;28;20508;-65
2023/06/23 01:52:50;;;;;;;1.73;1.33;;;26.00;49.00;;;;;;5035673;28;20029;-63
2023/06/23 01:55:17;;;;;;;1.60;1.20;;;26.10;49.10;;;;;;5022568;28;20021;-64
2023/06/23 01:57:45;;;;;;;1.23;1.13;;;26.00;49.00;;;;;;5024623;28;20056;-66
2023/06/23 02:00:15;;;;;;;1.98;1.17;;;26.10;49.10;;;;;;5019175;28;20034;-65
2023/06/23 02:02:44;;;;;;;1.50;1.00;;;26.10;49.10;;;;;;5044612;28;20049;-63
2023/06/23 02:05:12;;;;;;;2.17;1.30;;;26.00;49.10;;;;;;5039496;28;20600;-63
2023/06/23 02:07:40;;;;;;;1.40;1.20;;;26.00;49.00;;;;;;5011497;28;20082;-66
2023/06/23 02:10:07;;;;;;;1.83;1.30;;;26.00;49.00;;;;;;5032803;28;20041;-65
2023/06/23 02:12:39;;;;;;;1.40;1.10;;;26.00;49.00;;;;;;5027988;28;20132;-64
2023/06/23 02:15:08;;;;;;;1.80;1.33;;;26.00;49.00;;;;;;5027595;28;20120;-66
2023/06/23 02:17:35;;;;;;;1.83;1.17;;;26.00;49.00;;;;;;5019733;28;20291;-63
2023/06/23 02:20:13;;;;;;;1.55;1.17;;;26.00;49.00;;;;;;5024306;28;21218;-67
2023/06/23 02:22:42;;;;;;;2.40;1.42;;;26.00;49.10;;;;;;5038485;28;20040;-64
2023/06/23 02:25:10;;;;;;;1.30;1.15;;;26.00;49.00;;;;;;5018752;28;20016;-65
2023/06/23 02:27:39;;;;;;;1.80;1.20;;;26.00;49.10;;;;;;5042636;28;20025;-65
2023/06/23 02:30:06;;;;;;;1.38;1.17;;;26.00;49.00;;;;;;5038918;28;20051;-63
2023/06/23 02:32:32;;;;;;;2.25;1.35;;;26.00;49.00;;;;;;5042585;28;20143;-65
2023/06/23 02:34:58;;;;;;;1.30;1.20;;;26.00;49.00;;;;;;5038948;28;20121;-65
2023/06/23 02:37:26;;;;;;;1.58;1.17;;;25.90;49.00;;;;;;5017331;28;20298;-65
2023/06/23 02:39:57;;;;;;;1.65;1.40;;;25.90;49.00;;;;;;5025033;28;20055;-62
2023/06/23 02:42:31;;;;;;;1.40;1.25;;;25.90;49.00;;;;;;5040965;28;20103;-63
2023/06/23 02:45:01;;;;;;;1.42;1.33;;;25.90;49.00;;;;;;5036725;28;20057;-63
2023/06/23 02:47:29;;;;;;;1.75;1.30;;;25.90;49.00;;;;;;5021057;28;20036;-63
2023/06/23 02:50:02;;;;;;;1.75;1.23;;;25.90;49.00;;;;;;5023759;28;20469;-63
2023/06/23 02:52:34;;;;;;;2.97;1.50;;;25.90;49.00;;;;;;5025269;28;20063;-64
2023/06/23 02:55:03;;;;;;;2.20;1.33;;;25.80;48.90;;;;;;5025474;28;20028;-64
2023/06/23 02:57:30;;;;;;;1.50;1.40;;;25.90;49.00;;;;;;5023009;28;20033;-65
2023/06/23 03:00:00;;;;;;;1.40;1.30;;;25.90;49.00;;;;;;5016690;28;20026;-62
2023/06/23 03:02:29;;;;;;;3.03;1.30;;;25.80;48.90;;;;;;5037476;28;20037;-64
2023/06/23 03:04:57;;;;;;;1.80;1.30;;;25.90;49.00;;;;;;5039884;28;20307;-66
2023/06/23 03:07:24;;;;;;;1.50;1.40;;;25.80;48.90;;;;;;5017552;28;20052;-64
2023/06/23 03:09:50;;;;;;;2.10;1.40;;;25.80;49.00;;;;;;5019993;28;20115;-65
2023/06/23 03:12:16;;;;;;;1.63;1.38;;;25.80;49.00;;;;;;5033264;28;20064;-64
2023/06/23 03:14:44;;;;;;;1.88;1.20;;;25.80;49.10;;;;;;5043392;28;20079;-64
2023/06/23 03:17:17;;;;;;;1.60;1.42;;;25.80;49.10;;;;;;5031623;28;20065;-66
2023/06/23 03:19:56;;;;;;;1.48;1.25;;;25.80;49.20;;;;;;5024511;28;20083;-66
2023/06/23 03:22:29;;;;;;;2.10;1.42;;;25.80;49.20;;;;;;5019886;28;20458;-64
2023/06/23 03:25:02;;;;;;;1.60;1.30;;;25.80;49.20;;;;;;5041755;28;20063;-66
2023/06/23 03:27:31;;;;;;;1.63;1.17;;;25.80;49.30;;;;;;5027004;28;20032;-64
2023/06/23 03:30:04;;;;;;;1.83;1.27;;;25.80;49.30;;;;;;5020433;28;20041;-64
2023/06/23 03:32:41;;;;;;;4.15;1.77;;;25.80;49.30;;;;;;5011089;28;20409;-66
2023/06/23 03:35:11;;;;;;;1.52;1.30;;;25.80;49.30;;;;;;5040105;28;20096;-63
2023/06/23 03:37:46;;;;;;;1.58;1.48;;;25.80;49.30;;;;;;5020094;28;20033;-64
2023/06/23 03:40:14;;;;;;;1.77;1.67;;;25.70;49.30;;;;;;5041503;28;20424;-65
2023/06/23 03:42:48;;;;;;;1.63;1.50;;;25.70;49.30;;;;;;5044058;28;20056;-63
2023/06/23 03:45:16;;;;;;;2.03;1.83;;;25.70;49.30;;;;;;5015354;28;20071;-63
2023/06/23 03:47:45;;;;;;;1.85;1.60;;;25.70;49.30;;;;;;5042880;28;20086;-62
2023/06/23 03:50:16;;;;;;;2.13;1.50;;;25.70;49.40;;;;;;5039698;28;20381;-63
2023/06/23 03:52:42;;;;;;;2.25;1.73;;;25.70;49.30;;;;;;5041731;28;20134;-64
2023/06/23 03:55:11;;;;;;;2.28;1.75;;;25.80;49.40;;;;;;5038944;28;20075;-64
2023/06/23 03:57:39;;;;;;;1.63;1.52;;;25.70;49.40;;;;;;5036540;28;20033;-63
2023/06/23 04:00:07;;;;;;;1.98;1.75;;;25.70;49.40;;;;;;5042870;28;20913;-64
2023/06/23 04:02:41;;;;;;;3.03;1.70;;;25.70;49.40;;;;;;5014928;28;20076;-65
2023/06/23 04:05:12;;;;;;;1.60;1.50;;;25.70;49.50;;;;;;5039402;28;20045;-63
2023/06/23 04:07:40;;;;;;;2.35;1.65;;;25.70;49.50;;;;;;5033689;28;20628;-65
2023/06/23 04:10:08;;;;;;;2.03;1.65;;;25.70;49.50;;;;;;5039349;28;20033;-64
2023/06/23 04:12:35;;;;;;;2.20;1.90;;;25.70;49.50;;;;;;5047287;28;20060;-66
2023/06/23 04:15:06;;;;;;;2.50;1.83;;;25.70;49.50;;;;;;5046738;28;20042;-63
2023/06/23 04:17:35;;;;;;;2.08;1.80;;;25.70;49.50;;;;;;5035203;28;20045;-63
2023/06/23 04:20:03;;;;;;;2.35;1.90;;;25.60;50.10;;;;;;5043881;28;20036;-66
2023/06/23 04:22:30;;;;;;;2.30;1.80;;;25.70;49.60;;;;;;5046568;28;20456;-64
2023/06/23 04:24:58;;;;;;;2.72;1.95;;;25.70;49.60;;;;;;5043280;28;20029;-65
2023/06/23 04:27:25;;;;;;;2.35;1.90;;;25.70;49.60;;;;;;5044959;28;20494;-64
2023/06/23 04:29:53;;;;;;;2.20;2.00;;;25.60;49.60;;;;;;5030201;28;20029;-65
2023/06/23 04:32:21;;;;;;;2.30;1.75;;;25.70;49.60;;;;;;5036886;28;20056;-65
2023/06/23 04:34:47;;;;;;;2.28;1.88;;;25.70;49.70;;;;;;5038555;28;20045;-64
2023/06/23 04:37:39;;;;;;;2.85;2.28;;;25.60;49.60;;;;;;5045232;28;20056;-66
2023/06/23 04:40:11;;;;;;;2.30;2.10;;;25.70;49.70;;;;;;5042737;28;20390;-64
2023/06/23 04:43:08;;;;;;;3.60;2.30;;;25.70;49.70;;;;;;5027640;28;20037;-65
2023/06/23 04:45:38;;;;;;;3.88;2.60;;;25.70;49.70;;;;;;4980553;28;20105;-63
2023/06/23 04:48:09;;;;;;;3.00;2.45;;;25.70;49.70;;;;;;4994229;28;20033;-66
2023/06/23 04:50:35;;;;;;;2.58;2.25;;;25.70;49.70;;;;;;5005763;28;20030;-63
2023/06/23 04:53:08;;;;;;;3.08;2.47;;;25.70;49.80;;;;;;5001469;28;20377;-64
2023/06/23 04:55:37;;;;;;;3.72;2.83;;;25.60;49.70;;;;;;5001600;28;20026;-64
2023/06/23 04:58:05;;;;;;;3.08;2.47;;;25.70;49.80;;;;;;5001925;28;20048;-66
2023/06/23 05:00:32;;;;;;;3.10;2.30;;;25.70;49.90;;;;;;5000127;28;20049;-66
2023/06/23 05:02:59;;;;;;;3.90;2.58;;;25.70;49.80;;;;;;5000851;28;20525;-64
2023/06/23 05:05:28;;;;;;;2.75;2.40;;;25.70;49.80;;;;;;5000955;28;20054;-66
2023/06/23 05:07:55;;;;;;;2.70;2.45;;;25.70;49.80;;;;;;4997519;28;20042;-64
2023/06/23 05:10:24;;;;;;;3.55;2.40;;;25.70;49.90;;;;;;5000595;28;20041;-66
2023/06/23 05:12:53;;;;;;;3.38;2.50;;;25.70;49.90;;;;;;5003149;28;20030;-63
2023/06/23 05:15:20;;;;;;;3.42;2.65;;;25.70;49.90;;;;;;5003221;28;20481;-62
2023/06/23 05:17:49;;;;;;;3.35;2.50;;;25.70;49.90;;;;;;4999514;28;20101;-64
2023/06/23 05:20:19;;;;;;;3.38;2.85;;;25.70;49.90;;;;;;5006567;28;20087;-62
2023/06/23 05:22:48;;;;;;;3.80;3.00;;;25.70;49.90;;;;;;5000368;28;20307;-65
2023/06/23 05:25:16;;;;;;;2.70;2.40;;;25.70;50.00;;;;;;4996388;28;20022;-63
2023/06/23 05:27:45;;;;;;;3.40;2.47;;;25.70;50.00;;;;;;5001479;28;20076;-63
2023/06/23 05:30:21;;;;;;;3.67;2.50;;;25.70;50.00;;;;;;5005312;28;20053;-64
2023/06/23 05:32:49;;;;;;;3.25;2.60;;;25.70;50.10;;;;;;5003810;28;20044;-67
2023/06/23 05:35:16;;;;;;;3.00;2.35;;;25.70;50.20;;;;;;5001749;28;20022;-64
2023/06/23 05:37:44;;;;;;;3.42;2.67;;;25.70;50.20;;;;;;4999144;28;20049;-63
2023/06/23 05:40:13;;;;;;;3.13;2.53;;;25.70;50.20;;;;;;5000269;28;20068;-64
2023/06/23 05:42:39;;;;;;;3.17;2.88;;;25.70;50.30;;;;;;5003449;28;20409;-65
2023/06/23 05:45:05;;;;;;;3.40;2.60;;;25.70;50.40;;;;;;5038303;28;20068;-65
2023/06/23 05:48:05;;;;;;;4.28;2.92;;;25.70;50.40;;;;;;5023382;28;20060;-63
2023/06/23 05:50:34;;;;;;;3.35;2.90;;;25.80;50.60;;;;;;5015877;28;20112;-62
2023/06/23 05:53:04;;;;;;;2.80;2.50;;;25.70;50.60;;;;;;5043982;28;20045;-65
2023/06/23 05:55:35;;;;;;;2.90;2.47;;;25.80;50.70;;;;;;5042890;28;20036;-65
2023/06/23 05:58:05;;;;;;;3.90;2.90;;;25.70;50.70;;;;;;5042033;28;20846;-65
2023/06/23 06:00:38;;;;;;;3.13;2.80;;;25.80;50.80;;;;;;5040271;28;20043;-62
2023/06/23 06:03:07;;;;;;;3.22;2.92;;;25.80;50.90;;;;;;5040135;28;20084;-64
2023/06/23 06:05:35;;;;;;;3.10;2.70;;;25.80;50.90;;;;;;5042036;28;20033;-64
2023/06/23 06:08:02;;;;;;;3.33;2.70;;;25.70;51.00;;;;;;5020397;28;20047;-63
2023/06/23 06:10:31;;;;;;;3.03;2.72;;;25.70;51.00;;;;;;5044039;28;20025;-65
2023/06/23 06:12:59;;;;;;;3.33;2.78;;;25.80;51.20;;;;;;5043759;28;20090;-63
2023/06/23 06:15:26;;;;;;;3.45;3.10;;;25.80;51.20;;;;;;5044105;28;20088;-62
2023/06/23 06:17:54;;;;;;;4.15;2.83;;;25.80;51.20;;;;;;5039037;28;20472;-66
2023/06/23 06:20:21;;;;;;;3.20;2.80;;;25.80;51.30;;;;;;5042810;28;20056;-64
2023/06/23 06:22:50;;;;;;;3.28;2.80;;;25.80;51.40;;;;;;5040402;28;20037;-65
2023/06/23 06:25:16;;;;;;;2.75;2.53;;;25.80;51.40;;;;;;5037297;28;20310;-64
2023/06/23 06:27:44;;;;;;;3.05;2.63;;;25.80;51.40;;;;;;5038834;28;20044;-63
2023/06/23 06:30:12;;;;;;;3.15;2.75;;;25.80;51.40;;;;;;5042893;28;20069;-65
2023/06/23 06:32:40;;;;;;;3.22;2.75;;;25.80;51.40;;;;;;5038674;28;20020;-63
2023/06/23 06:35:10;;;;;;;3.88;2.67;;;25.80;51.50;;;;;;5010719;28;20089;-65
2023/06/23 06:37:40;;;;;;;3.17;2.85;;;25.80;51.60;;;;;;5041302;28;20098;-65
2023/06/23 06:40:08;;;;;;;3.63;2.50;;;25.80;51.60;;;;;;5024844;28;20047;-64
2023/06/23 06:42:36;;;;;;;4.28;2.75;;;25.80;51.70;;;;;;5024498;28;20036;-64
2023/06/23 06:45:04;;;;;;;3.53;2.97;;;25.80;51.80;;;;;;5042987;28;20049;-63
2023/06/23 06:47:30;;;;;;;3.72;2.92;;;25.80;51.80;;;;;;5041574;28;20021;-63
2023/06/23 06:49:59;;;;;;;3.05;2.63;;;25.80;51.90;;;;;;5039376;28;20117;-62
2023/06/23 06:52:28;;;;;;;3.75;2.95;;;25.80;51.90;;;;;;5037335;28;20486;-65
2023/06/23 06:54:54;;;;;;;3.60;3.03;;;25.80;52.00;;;;;;5039402;28;20062;-66
2023/06/23 06:57:21;;;;;;;3.83;3.20;;;25.80;52.00;;;;;;5036692;28;20440;-64
2023/06/23 06:59:47;;;;;;;4.80;2.90;;;25.90;52.20;;;;;;5017047;28;20127;-64
2023/06/23 07:02:13;;;;;;;3.75;3.03;;;25.90;52.20;;;;;;5041802;28;20130;-63
2023/06/23 07:04:40;;;;;;;3.65;2.63;;;25.80;52.20;;;;;;5039643;28;20471;-65
2023/06/23 07:07:06;;;;;;;3.35;3.05;;;25.90;52.30;;;;;;5042653;28;20126;-67
2023/06/23 07:09:32;;;;;;;3.05;2.30;;;25.90;52.30;;;;;;5042364;28;20432;-65
2023/06/23 07:12:01;;;;;;;2.60;2.38;;;25.90;52.30;;;;;;5046519;28;20108;-63
2023/06/23 07:14:26;;;;;;;3.08;2.42;;;25.90;52.20;;;;;;5041727;28;20561;-65
2023/06/23 07:16:54;;;;;;;4.18;2.88;;;25.90;52.20;;;;;;5038333;28;20517;-64
2023/06/23 07:19:20;;;;;;;2.83;2.38;;;25.90;52.30;;;;;;5037938;28;21577;-63
2023/06/23 07:21:46;;;;;;;3.38;2.08;;;25.90;52.20;;;;;;5037673;28;20044;-63
2023/06/23 07:24:11;;;;;;;3.30;2.67;;;26.00;52.30;;;;;;5022922;28;20112;-62
2023/06/23 07:26:37;;;;;;;3.13;2.33;;;26.00;52.20;;;;;;5039863;28;20052;-64
2023/06/23 07:29:03;;;;;;;3.67;2.53;;;26.00;52.30;;;;;;5042869;28;20090;-65
2023/06/23 07:31:30;;;;;;;2.70;2.38;;;26.00;52.20;;;;;;5042963;28;20036;-64
2023/06/23 07:33:56;;;;;;;2.67;2.33;;;26.00;52.20;;;;;;5038819;28;20048;-62
2023/06/23 07:36:22;;;;;;;2.35;2.10;;;26.00;52.20;;;;;;5040483;28;20040;-62
2023/06/23 07:38:48;;;;;;;2.95;1.90;;;26.10;52.20;;;;;;5043753;28;20158;-64
2023/06/23 07:41:14;;;;;;;2.92;2.28;;;26.00;52.10;;;;;;5040208;28;20753;-63
2023/06/23 07:43:44;;;;;;;2.33;2.03;;;26.10;52.80;;;;;;5016060;28;20258;-62
2023/06/23 07:46:10;;;;;;;3.33;2.10;;;26.10;52.20;;;;;;5023063;28;20094;-64
2023/06/23 07:48:36;;;;;;;2.35;1.95;;;26.10;52.10;;;;;;5020330;28;20101;-66
2023/06/23 07:51:02;;;;;;;4.18;2.28;;;26.10;52.10;;;;;;5006667;28;20427;-63
2023/06/23 07:53:28;;;;;;;3.55;2.33;;;26.10;52.00;;;;;;5025655;28;20041;-65
2023/06/23 07:55:55;;;;;;;2.28;2.03;;;26.10;52.00;;;;;;5029923;28;20371;-64
2023/06/23 07:58:22;;;;;;;2.35;2.00;;;26.10;51.80;;;;;;5024268;28;20049;-65
2023/06/23 08:00:48;;;;;;;2.63;2.20;;;26.20;51.80;;;;;;5029458;28;20124;-64
2023/06/23 08:03:13;;;;;;;2.38;2.17;;;26.20;51.70;;;;;;5031060;28;20208;-64
2023/06/23 08:05:39;;;;;;;2.05;1.77;;;26.20;51.60;;;;;;5019684;28;20041;-63
2023/06/23 08:08:05;;;;;;;3.53;2.00;;;26.20;51.50;;;;;;5023315;28;20135;-63
2023/06/23 08:10:31;;;;;;;2.75;1.90;;;26.20;51.50;;;;;;5026228;28;20026;-64
2023/06/23 08:12:57;;;;;;;3.30;2.13;;;26.20;51.50;;;;;;5023326;28;20029;-64
2023/06/23 08:15:23;;;;;;;2.47;2.00;;;26.20;51.40;;;;;;5029671;28;20081;-65
2023/06/23 08:17:49;;;;;;;2.05;1.60;;;26.20;51.30;;;;;;5025405;28;20048;-64
2023/06/23 08:20:15;;;;;;;2.88;2.13;;;26.20;51.30;;;;;;5020787;28;20037;-65
2023/06/23 08:22:41;;;;;;;2.50;2.00;;;26.20;51.80;;;;;;5028717;28;20049;-67
2023/06/23 08:25:08;;;;;;;2.45;2.17;;;26.20;51.20;;;;;;5022182;28;20068;-66
2023/06/23 08:27:34;;;;;;;2.20;2.00;;;26.20;51.30;;;;;;5025698;28;20040;-67
2023/06/23 08:30:00;;;;;;;2.70;1.85;;;26.20;51.40;;;;;;5024827;28;20456;-66
2023/06/23 08:32:26;;;;;;;2.10;1.90;;;26.30;51.40;;;;;;5026609;28;20132;-69
2023/06/23 08:34:52;;;;;;;2.40;1.95;;;26.40;51.30;;;;;;5017721;28;20120;-65
2023/06/23 08:37:18;;;;;;;2.10;1.90;;;26.40;51.10;;;;;;5024042;28;20068;-63
2023/06/23 08:39:44;;;;;;;2.70;1.98;;;26.50;51.00;;;;;;5029307;28;20061;-65
2023/06/23 08:42:15;;;;;;;2.72;2.25;;;26.60;50.80;;;;;;5022951;28;20182;-63
2023/06/23 08:44:47;;;;;;;3.38;2.00;;;26.70;50.60;;;;;;5045691;28;20113;-62
2023/06/23 08:47:15;;;;;;;2.22;1.75;;;26.80;50.40;;;;;;5044857;28;20088;-67
2023/06/23 08:49:42;;;;;;;1.90;1.80;;;26.80;50.20;;;;;;5044936;28;20128;-64
2023/06/23 08:52:10;;;;;;;2.75;1.88;;;26.90;50.00;;;;;;5047549;28;20033;-62
2023/06/23 08:54:36;;;;;;;2.55;1.83;;;26.90;49.70;;;;;;5046983;28;20456;-65
2023/06/23 08:57:03;;;;;;;2.20;2.00;;;26.90;49.70;;;;;;5043370;28;20379;-61
2023/06/23 08:59:30;;;;;;;1.85;1.40;;;26.90;49.50;;;;;;5046732;28;20111;-64
2023/06/23 09:01:56;;;;;;;2.58;1.70;;;26.90;49.30;;;;;;5027615;28;20498;-62
2023/06/23 09:04:22;;;;;;;2.00;1.80;;;26.90;49.20;;;;;;5045760;28;20081;-65
2023/06/23 09:06:48;;;;;;;2.55;1.70;;;26.90;49.10;;;;;;5045246;28;20049;-62
2023/06/23 09:09:14;;;;;;;2.03;1.70;;;26.90;49.00;;;;;;5044598;28;20036;-63
2023/06/23 09:11:42;;;;;;;1.70;1.60;;;26.90;48.70;;;;;;5047101;28;20104;-62
2023/06/23 09:14:10;;;;;;;2.03;1.60;;;26.90;48.60;;;;;;5044932;28;20044;-64
2023/06/23 09:16:38;;;;;;;1.67;1.58;;;26.90;48.50;;;;;;5043287;28;20125;-62
2023/06/23 09:19:06;;;;;;;1.70;1.60;;;26.90;48.30;;;;;;5047148;28;20021;-62
2023/06/23 09:21:35;;;;;;;2.20;1.85;;;26.90;48.20;;;;;;5047575;28;20487;-66
2023/06/23 09:24:03;;;;;;;1.73;1.55;;;26.90;48.10;;;;;;5023365;28;20044;-66
2023/06/23 09:26:30;;;;;;;2.03;1.60;;;26.80;48.00;;;;;;5042824;28;20118;-65
2023/06/23 09:29:15;;;;;;;2.50;1.52;;;26.80;48.10;;;;;;5041621;28;21491;-63
2023/06/23 09:31:42;;;;;;;1.52;1.40;;;26.80;47.90;;;;;;5044217;28;20028;-61
2023/06/23 09:34:09;;;;;;;2.17;1.67;;;26.80;47.80;;;;;;5047195;28;20032;-65
2023/06/23 09:36:36;;;;;;;1.65;1.40;;;26.80;47.70;;;;;;5041118;28;20029;-62
2023/06/23 09:39:03;;;;;;;1.90;1.48;;;26.80;47.50;;;;;;5048022;28;20055;-62
2023/06/23 09:41:33;;;;;;;1.40;1.30;;;26.80;47.50;;;;;;5044680;28;20087;-62
2023/06/23 09:43:59;;;;;;;1.70;1.50;;;26.80;47.40;;;;;;5046654;28;20065;-65
2023/06/23 09:46:32;;;;;;;1.60;1.50;;;26.80;47.40;;;;;;5040440;28;20065;-62
2023/06/23 09:49:00;;;;;;;2.13;1.63;;;26.80;47.30;;;;;;5042826;28;20185;-63
2023/06/23 09:51:26;;;;;;;1.95;1.75;;;26.80;47.30;;;;;;5038434;28;20082;-64
2023/06/23 09:53:52;;;;;;;1.60;1.45;;;26.80;47.20;;;;;;5043557;28;20560;-62
2023/06/23 09:56:20;;;;;;;1.90;1.60;;;26.80;47.20;;;;;;5043877;28;20033;-62
2023/06/23 09:58:48;;;;;;;3.00;1.63;;;26.80;47.10;;;;;;5046485;28;20048;-61
2023/06/23 10:01:17;;;;;;;1.45;1.30;;;26.80;47.00;;;;;;5038852;28;20029;-65
2023/06/23 10:03:46;;;;;;;1.52;1.42;;;26.80;46.90;;;;;;5036202;28;20083;-61
2023/06/23 10:06:37;;;;;;;1.58;1.40;;;26.80;47.00;;;;;;5040723;28;20120;-64
2023/06/23 10:09:11;;;;;;;2.13;1.50;;;26.80;46.90;;;;;;5037916;28;20025;-64
2023/06/23 10:11:39;;;;;;;1.58;1.48;;;26.80;46.90;;;;;;5038701;28;20035;-63
2023/06/23 10:14:15;;;;;;;1.77;1.63;;;26.80;47.00;;;;;;5040420;28;20062;-64
2023/06/23 10:16:45;;;;;;;1.70;1.60;;;26.80;47.00;;;;;;5020504;28;20025;-65
2023/06/23 10:19:13;;;;;;;2.25;1.73;;;26.80;47.00;;;;;;5041262;28;20038;-63
2023/06/23 10:21:40;;;;;;;1.90;1.70;;;26.80;46.90;;;;;;5040203;28;20061;-64
2023/06/23 10:24:10;;;;;;;1.50;1.40;;;26.80;47.40;;;;;;5043634;28;20112;-64
2023/06/23 10:26:37;;;;;;;1.63;1.52;;;26.80;46.60;;;;;;5037381;28;20087;-64
2023/06/23 10:29:12;;;;;;;1.80;1.55;;;26.80;46.50;;;;;;5043294;28;20087;-63
2023/06/23 10:31:41;;;;;;;2.13;1.75;;;26.80;46.40;;;;;;5039635;28;20041;-67
2023/06/23 10:34:12;;;;;;;2.35;1.70;;;26.80;46.30;;;;;;5041971;28;20043;-62
2023/06/23 10:36:43;;;;;;;1.90;1.70;;;26.80;46.30;;;;;;5039482;28;20087;-64
2023/06/23 10:39:11;;;;;;;1.50;1.40;;;26.80;46.40;;;;;;5040637;28;20458;-60
2023/06/23 10:41:40;;;;;;;1.70;1.60;;;26.80;46.50;;;;;;5041525;28;20068;-68
2023/06/23 10:44:08;;;;;;;1.67;1.42;;;26.80;46.70;;;;;;5040785;28;20063;-67
2023/06/23 10:46:35;;;;;;;1.95;1.70;;;26.80;46.70;;;;;;5038058;28;20076;-68
2023/06/23 10:49:04;;;;;;;2.00;1.73;;;26.90;46.80;;;;;;5039137;28;20355;-68
2023/06/23 10:51:37;;;;;;;1.70;1.60;;;26.90;46.70;;;;;;5040129;28;20106;-67
2023/06/23 10:54:07;;;;;;;2.20;1.45;;;27.00;46.70;;;;;;5040655;28;20073;-66
2023/06/23 10:56:35;;;;;;;3.33;1.50;;;27.10;46.70;;;;;;5044128;28;20052;-64
2023/06/23 10:59:21;;;;;;;1.45;1.17;;;27.10;46.60;;;;;;5039085;28;20040;-61
2023/06/23 11:02:06;;;;;;;3.25;1.92;;;27.30;46.50;;;;;;5040495;28;20036;-61
2023/06/23 11:04:34;;;;;;;2.22;1.88;;;27.40;46.20;;;;;;5041891;28;20503;-64
2023/06/23 11:07:09;;;;;;;1.50;1.35;;;27.40;46.00;;;;;;5040420;28;20344;-63
2023/06/23 11:10:01;;;;;;;2.25;1.88;;;27.50;45.80;;;;;;5039611;28;20080;-63
2023/06/23 11:12:42;;;;;;;3.78;1.52;;;27.50;45.40;;;;;;5037080;28;20055;-62
2023/06/23 11:15:16;;;;;;;2.60;1.77;;;27.60;45.20;;;;;;5037291;28;20077;-63
2023/06/23 11:18:11;;;;;;;2.13;1.45;;;27.60;44.90;;;;;;5041397;28;20140;-62
2023/06/23 11:20:43;;;;;;;1.42;1.30;;;27.60;44.60;;;;;;5015369;28;20140;-62
2023/06/23 11:23:11;;;;;;;1.70;1.50;;;27.60;44.40;;;;;;5044592;28;20413;-63
2023/06/23 11:25:38;;;;;;;1.70;1.50;;;27.60;44.30;;;;;;5040957;28;20044;-65
2023/06/23 11:28:29;;;;;;;2.45;1.58;;;27.60;44.20;;;;;;5017246;28;20032;-62
2023/06/23 11:31:13;;;;;;;1.77;1.55;;;27.60;44.00;;;;;;5044258;28;20044;-61
2023/06/23 11:33:58;;;;;;;1.52;1.30;;;27.50;43.90;;;;;;5040895;28;20203;-62
2023/06/23 11:36:26;;;;;;;1.40;1.30;;;27.50;43.60;;;;;;5040373;28;20025;-64
2023/06/23 11:38:55;;;;;;;2.45;1.77;;;27.50;43.60;;;;;;5041878;28;20124;-62
2023/06/23 11:41:30;;;;;;;2.65;1.67;;;27.50;43.40;;;;;;5041572;28;20044;-63
2023/06/23 11:44:01;;;;;;;1.95;1.42;;;27.50;43.30;;;;;;5011611;28;20307;-62
2023/06/23 11:46:31;;;;;;;1.85;1.60;;;27.50;43.10;;;;;;5005512;28;20058;-62
2023/06/23 11:48:57;;;;;;;2.33;1.73;;;27.50;43.10;;;;;;4999989;28;20364;-63
2023/06/23 11:51:22;;;;;;;2.15;1.30;;;27.40;43.00;;;;;;5004489;28;20105;-65
2023/06/23 11:53:52;;;;;;;3.33;1.63;;;27.50;43.10;;;;;;5004119;28;20065;-64
2023/06/23 11:56:19;;;;;;;2.30;1.40;;;27.50;43.10;;;;;;5005546;28;20018;-63
2023/06/23 11:58:55;;;;;;;2.28;1.60;;;27.40;43.00;;;;;;5003626;28;20038;-63
2023/06/23 12:01:21;;;;;;;2.63;1.83;;;27.40;43.00;;;;;;5006088;28;20033;-61
2023/06/23 12:03:52;;;;;;;2.55;1.52;;;27.40;43.10;;;;;;5002946;28;20098;-61
2023/06/23 12:06:19;;;;;;;1.98;1.40;;;27.40;43.00;;;;;;4999001;28;20037;-63
2023/06/23 12:08:49;;;;;;;1.90;1.50;;;27.40;43.00;;;;;;5003641;28;20275;-62
2023/06/23 12:11:22;;;;;;;1.85;1.63;;;27.40;43.00;;;;;;5003861;28;20053;-62
2023/06/23 12:13:51;;;;;;;1.67;1.58;;;27.40;42.90;;;;;;5003610;28;20414;-63
2023/06/23 12:16:18;;;;;;;2.92;1.60;;;27.40;42.70;;;;;;5001874;28;20088;-62
2023/06/23 12:18:50;;;;;;;2.20;1.58;;;27.40;42.70;;;;;;4992080;28;21304;-68
2023/06/23 12:21:20;;;;;;;1.70;1.42;;;27.40;42.70;;;;;;4997978;28;20670;-66
2023/06/23 12:23:46;;;;;;;1.60;1.45;;;27.40;42.90;;;;;;4995787;28;20034;-68
2023/06/23 12:26:15;;;;;;;2.33;1.60;;;27.40;43.00;;;;;;4999464;28;20414;-65
2023/06/23 12:28:42;;;;;;;1.77;1.40;;;27.50;43.20;;;;;;5001733;28;20072;-66
2023/06/23 12:31:09;;;;;;;1.45;1.33;;;27.50;43.20;;;;;;4987040;28;20060;-68
2023/06/23 12:33:39;;;;;;;1.15;1.05;;;27.60;43.30;;;;;;5004733;28;20061;-66
2023/06/23 12:36:07;;;;;;;2.35;1.30;;;27.70;43.50;;;;;;5005422;28;20025;-64
2023/06/23 12:38:37;;;;;;;1.48;1.30;;;27.70;43.30;;;;;;5007501;28;20062;-66
2023/06/23 12:41:20;;;;;;;2.45;1.20;;;27.80;43.30;;;;;;5001619;28;20025;-63
2023/06/23 12:43:52;;;;;;;2.58;1.60;;;28.00;43.40;;;;;;5017338;28;20467;-66
2023/06/23 12:46:24;;;;;;;2.88;1.40;;;28.00;43.30;;;;;;5029715;28;20056;-64
2023/06/23 12:48:53;;;;;;;2.78;1.67;;;28.10;43.20;;;;;;5036610;28;20120;-66
2023/06/23 12:51:38;;;;;;;1.77;1.40;;;28.20;43.10;;;;;;5031439;28;20052;-61
2023/06/23 12:54:04;;;;;;;;;;;28.30;42.90;;;;;;5043793;28;20064;-63
2023/06/23 12:56:30;;;;;;;1.65;1.10;;;28.30;42.90;;;;;;5047657;28;20371;-62
2023/06/23 12:58:57;;;;;;;1.40;1.10;;;28.30;42.70;;;;;;5045906;28;20480;-62
2023/06/23 13:01:24;;;;;;;1.73;1.52;;;28.30;43.20;;;;;;5044428;28;20181;-65